createdAt,value
2022-10-25T00:02:20.774Z,68.58
2022-10-25T00:05:09.678Z,68.51
2022-10-25T00:07:56.939Z,68.37
2022-10-25T00:10:44.220Z,68.31
2022-10-25T00:13:32.879Z,68.58
2022-10-25T00:16:23.878Z,68.69
2022-10-25T00:19:11.970Z,68.46
2022-10-25T00:21:59.738Z,68.53
2022-10-25T00:24:47.400Z,68.48
2022-10-25T00:27:35.438Z,68.57
2022-10-25T00:30:24.546Z,68.67
2022-10-25T00:33:12.124Z,68.71
2022-10-25T00:36:05.649Z,69.12
2022-10-25T00:38:54.424Z,68.65
2022-10-25T00:41:41.736Z,68.71
2022-10-25T00:44:52.801Z,68.81
2022-10-25T00:47:53.575Z,68.84
2022-10-25T00:50:51.727Z,68.85
2022-10-25T00:53:39.857Z,68.69
2022-10-25T00:56:31.726Z,68.71
2022-10-25T00:59:23.732Z,68.82
2022-10-25T01:02:12.197Z,68.87
2022-10-25T01:05:01.426Z,68.80
2022-10-25T01:07:49.110Z,68.84
2022-10-25T01:10:36.855Z,68.66
2022-10-25T01:13:24.435Z,68.65
2022-10-25T01:16:25.620Z,68.77
2022-10-25T01:19:44.312Z,68.96
2022-10-25T01:22:40.059Z,68.84
2022-10-25T01:26:11.339Z,68.79
2022-10-25T01:29:34.580Z,68.58
2022-10-25T01:32:30.893Z,68.81
2022-10-25T01:35:30.335Z,68.91
2022-10-25T01:38:34.731Z,68.55
2022-10-25T01:41:29.664Z,68.88
2022-10-25T01:44:34.241Z,69.06
2022-10-25T01:47:26.960Z,68.97
2022-10-25T01:50:19.022Z,68.94
2022-10-25T01:53:06.731Z,68.96
2022-10-25T01:55:58.172Z,68.90
2022-10-25T01:58:59.076Z,69.04
2022-10-25T02:02:05.174Z,68.98
2022-10-25T02:05:05.255Z,68.79
2022-10-25T02:08:01.723Z,69.10
2022-10-25T02:10:59.286Z,69.06
2022-10-25T02:14:01.081Z,68.94
2022-10-25T02:16:52.751Z,68.85
2022-10-25T02:19:45.688Z,68.82
2022-10-25T02:22:36.312Z,69.01
2022-10-25T02:25:24.364Z,68.91
2022-10-25T02:28:15.335Z,68.88
2022-10-25T02:31:03.691Z,68.92
2022-10-25T02:33:51.527Z,68.82
2022-10-25T02:36:39.346Z,68.71
2022-10-25T02:39:31.707Z,68.87
2022-10-25T02:42:19.371Z,68.64
2022-10-25T02:45:08.099Z,68.83
2022-10-25T02:47:55.622Z,68.77
2022-10-25T02:50:42.961Z,68.85
2022-10-25T02:53:30.242Z,68.76
2022-10-25T02:56:22.214Z,68.92
2022-10-25T02:59:12.241Z,68.66
2022-10-25T03:01:59.892Z,68.61
2022-10-25T03:04:47.160Z,68.68
2022-10-25T03:07:34.529Z,68.69
2022-10-25T03:10:21.925Z,68.62
2022-10-25T03:13:10.717Z,68.47
2022-10-25T03:15:58.519Z,68.79
2022-10-25T03:18:45.836Z,68.80
2022-10-25T03:21:33.335Z,68.72
2022-10-25T03:24:20.681Z,68.59
2022-10-25T03:27:11.192Z,68.59
2022-10-25T03:30:00.010Z,68.47
2022-10-25T03:32:47.454Z,68.36
2022-10-25T03:35:34.925Z,68.48
2022-10-25T03:38:23.413Z,68.28
2022-10-25T03:41:10.916Z,68.27
2022-10-25T03:43:58.220Z,68.36
2022-10-25T03:46:46.890Z,68.27
2022-10-25T03:49:34.644Z,68.32
2022-10-25T03:52:22.010Z,68.09
2022-10-25T03:55:10.666Z,68.00
2022-10-25T03:57:58.362Z,68.01
2022-10-25T04:00:45.689Z,67.94
2022-10-25T04:03:34.466Z,68.03
2022-10-25T04:06:22.128Z,67.89
2022-10-25T04:09:09.582Z,67.86
2022-10-25T04:11:57.331Z,67.93
2022-10-25T04:14:44.802Z,67.95
2022-10-25T04:17:32.142Z,67.89
2022-10-25T04:20:21.867Z,68.09
2022-10-25T04:23:09.589Z,68.09
2022-10-25T04:25:57.269Z,67.96
2022-10-25T04:28:44.885Z,67.95
2022-10-25T04:31:33.464Z,68.01
2022-10-25T04:34:21.268Z,68.07
2022-10-25T04:37:09.998Z,67.98
2022-10-25T04:39:57.624Z,68.16
2022-10-25T04:42:45.283Z,68.22
2022-10-25T04:45:33.089Z,68.25
2022-10-25T04:48:21.044Z,68.41
2022-10-25T04:51:09.121Z,68.30
2022-10-25T04:53:57.971Z,68.42
2022-10-25T04:56:45.617Z,68.25
2022-10-25T04:59:33.065Z,68.41
2022-10-25T05:02:20.655Z,68.24
2022-10-25T05:05:09.131Z,68.29
2022-10-25T05:07:56.325Z,68.30
2022-10-25T05:10:45.099Z,68.34
2022-10-25T05:13:35.779Z,68.44
2022-10-25T05:16:26.045Z,68.42
2022-10-25T05:19:15.587Z,68.35
2022-10-25T05:22:04.038Z,68.43
2022-10-25T05:24:51.498Z,68.38
2022-10-25T05:27:41.017Z,68.50
2022-10-25T05:30:28.570Z,68.40
2022-10-25T05:33:16.001Z,68.36
2022-10-25T05:36:05.105Z,68.37
2022-10-25T05:38:53.046Z,68.28
2022-10-25T05:41:40.345Z,68.20
2022-10-25T05:44:29.233Z,68.30
2022-10-25T05:47:16.872Z,68.24
2022-10-25T05:50:04.765Z,68.26
2022-10-25T05:52:53.326Z,68.22
2022-10-25T05:55:47.089Z,68.31
2022-10-25T05:58:34.590Z,68.26
2022-10-25T06:01:26.338Z,68.46
2022-10-25T06:04:15.355Z,68.29
2022-10-25T06:07:02.618Z,68.38
2022-10-25T06:09:49.933Z,68.18
2022-10-25T06:12:37.379Z,68.26
2022-10-25T06:15:24.774Z,68.27
2022-10-25T06:18:13.537Z,68.26
2022-10-25T06:21:04.168Z,68.43
2022-10-25T06:23:52.096Z,68.37
2022-10-25T06:26:39.487Z,68.45
2022-10-25T06:29:26.976Z,68.33
2022-10-25T06:32:14.265Z,68.25
2022-10-25T06:35:02.996Z,68.32
2022-10-25T06:37:50.788Z,68.33
2022-10-25T06:40:40.798Z,68.32
2022-10-25T06:43:28.638Z,68.41
2022-10-25T06:46:22.819Z,68.37
2022-10-25T06:49:11.811Z,68.51
2022-10-25T06:52:00.720Z,68.57
2022-10-25T06:54:48.600Z,68.38
2022-10-25T06:57:36.345Z,68.36
2022-10-25T07:00:23.953Z,68.44
2022-10-25T07:03:11.547Z,68.56
2022-10-25T07:06:01.613Z,68.45
2022-10-25T07:08:56.032Z,68.70
2022-10-25T07:11:45.834Z,68.90
2022-10-25T07:14:33.229Z,68.74
2022-10-25T07:17:20.759Z,68.85
2022-10-25T07:20:09.679Z,68.76
2022-10-25T07:23:00.141Z,68.61
2022-10-25T07:25:53.526Z,68.77
2022-10-25T07:28:42.273Z,68.73
2022-10-25T07:31:34.129Z,68.91
2022-10-25T07:34:21.776Z,69.07
2022-10-25T07:37:09.126Z,69.31
2022-10-25T07:39:58.504Z,69.31
2022-10-25T07:42:51.198Z,69.15
2022-10-25T07:45:40.288Z,69.13
2022-10-25T07:48:28.459Z,68.92
2022-10-25T07:51:18.441Z,68.84
2022-10-25T07:54:06.334Z,68.78
2022-10-25T07:56:54.054Z,68.84
2022-10-25T07:59:42.674Z,68.89
2022-10-25T08:02:30.179Z,68.82
2022-10-25T08:05:19.596Z,68.67
2022-10-25T08:08:10.619Z,68.48
2022-10-25T08:10:59.680Z,68.19
2022-10-25T08:13:51.551Z,67.78
2022-10-25T08:16:40.523Z,67.10
2022-10-25T08:19:28.109Z,66.69
2022-10-25T08:22:15.828Z,66.32
2022-10-25T08:25:06.318Z,66.62
2022-10-25T08:27:53.853Z,66.41
2022-10-25T08:30:42.303Z,66.55
2022-10-25T08:33:31.555Z,65.94
2022-10-25T08:36:19.215Z,65.45
2022-10-25T08:39:06.735Z,65.40
2022-10-25T08:41:57.207Z,64.89
2022-10-25T08:44:52.200Z,64.78
2022-10-25T08:47:45.016Z,64.45
2022-10-25T08:50:46.874Z,63.88
2022-10-25T08:53:45.411Z,63.99
2022-10-25T08:56:42.583Z,64.06
2022-10-25T08:59:44.068Z,63.62
2022-10-25T09:02:47.285Z,63.00
2022-10-25T09:05:41.655Z,62.54
2022-10-25T09:08:48.310Z,62.26
2022-10-25T09:11:58.831Z,61.46
2022-10-25T09:14:52.707Z,61.02
2022-10-25T09:17:50.094Z,60.07
2022-10-25T09:20:49.255Z,59.32
2022-10-25T09:23:36.722Z,58.60
2022-10-25T09:26:35.931Z,57.47
2022-10-25T09:29:30.968Z,57.25
2022-10-25T09:32:25.484Z,56.36
2022-10-25T09:35:18.640Z,55.87
2022-10-25T09:38:19.349Z,54.53
2022-10-25T09:41:12.894Z,53.77
2022-10-25T09:44:06.819Z,53.08
2022-10-25T09:46:58.965Z,52.36
2022-10-25T09:49:56.143Z,52.43
2022-10-25T09:52:56.188Z,52.42
2022-10-25T09:55:54.010Z,52.50
2022-10-25T09:58:45.071Z,53.00
2022-10-25T10:01:41.071Z,53.22
2022-10-25T10:04:36.430Z,53.43
2022-10-25T10:07:30.897Z,53.60
2022-10-25T10:10:21.197Z,54.45
2022-10-25T10:13:19.414Z,53.83
2022-10-25T10:16:17.400Z,53.68
2022-10-25T10:19:18.472Z,53.54
2022-10-25T10:22:13.473Z,53.24
2022-10-25T10:25:05.953Z,53.33
2022-10-25T10:27:59.327Z,53.13
2022-10-25T10:30:56.378Z,53.31
2022-10-25T10:33:50.237Z,52.64
2022-10-25T10:36:40.279Z,51.72
2022-10-25T10:39:27.688Z,51.39
2022-10-25T10:42:18.449Z,51.16
2022-10-25T10:45:18.186Z,50.81
2022-10-25T10:48:07.412Z,51.00
2022-10-25T10:50:55.219Z,51.12
2022-10-25T10:53:42.792Z,51.46
2022-10-25T10:56:31.943Z,51.49
2022-10-25T10:59:52.757Z,51.76
2022-10-25T11:02:43.157Z,51.88
2022-10-25T11:05:35.212Z,51.74
2022-10-25T11:08:23.027Z,51.77
2022-10-25T11:11:20.262Z,51.44
2022-10-25T11:14:14.172Z,51.52
2022-10-25T11:17:10.141Z,51.58
2022-10-25T11:20:18.360Z,51.88
2022-10-25T11:23:14.816Z,52.39
2022-10-25T11:26:11.144Z,52.64
2022-10-25T11:29:13.575Z,52.20
2022-10-25T11:32:14.299Z,52.68
2022-10-25T11:35:19.238Z,52.75
2022-10-25T11:38:17.614Z,53.08
2022-10-25T11:41:22.331Z,53.09
2022-10-25T11:44:46.602Z,53.13
2022-10-25T11:47:44.352Z,52.79
2022-10-25T11:50:44.371Z,52.91
2022-10-25T11:54:10.845Z,53.57
2022-10-25T11:57:13.930Z,53.82
2022-10-25T12:00:09.890Z,53.97
2022-10-25T12:03:20.401Z,53.82
2022-10-25T12:06:20.562Z,53.97
2022-10-25T12:09:25.035Z,54.32
2022-10-25T12:12:17.839Z,54.12
2022-10-25T12:15:13.239Z,53.91
2022-10-25T12:18:02.108Z,53.55
2022-10-25T12:20:51.335Z,53.23
2022-10-25T12:23:45.305Z,53.31
2022-10-25T12:26:39.207Z,53.31
2022-10-25T12:29:36.108Z,53.34
2022-10-25T12:32:28.877Z,53.54
2022-10-25T12:35:23.792Z,53.97
2022-10-25T12:38:20.918Z,54.28
2022-10-25T12:41:17.305Z,53.79
2022-10-25T12:44:32.214Z,54.17
2022-10-25T12:47:40.995Z,54.43
2022-10-25T12:51:05.808Z,54.45
2022-10-25T12:54:28.471Z,54.12
2022-10-25T12:57:27.602Z,54.01
2022-10-25T13:03:44.573Z,54.34
2022-10-25T13:06:37.099Z,54.39
2022-10-25T13:09:31.567Z,54.45
2022-10-25T13:12:30.476Z,54.64
2022-10-25T13:15:20.822Z,54.60
2022-10-25T13:18:27.577Z,54.58
2022-10-25T13:21:16.671Z,54.46
2022-10-25T13:24:04.583Z,54.77
2022-10-25T13:27:21.907Z,54.99
2022-10-25T13:30:31.947Z,54.79
2022-10-25T13:33:33.838Z,54.93
2022-10-25T13:36:51.717Z,55.24
2022-10-25T13:39:44.877Z,54.89
2022-10-25T13:42:35.649Z,55.15
2022-10-25T13:45:33.418Z,55.34
2022-10-25T13:48:31.178Z,55.22
2022-10-25T13:51:21.403Z,55.51
2022-10-25T13:54:13.614Z,55.19
2022-10-25T13:57:03.883Z,55.60
2022-10-25T14:00:03.103Z,55.55
2022-10-25T14:03:37.095Z,55.90
2022-10-25T14:06:30.335Z,55.40
2022-10-25T14:09:29.202Z,55.84
2022-10-25T14:12:20.430Z,55.64
2022-10-25T14:15:24.051Z,55.72
2022-10-25T14:18:20.655Z,55.74
2022-10-25T14:21:12.692Z,55.82
2022-10-25T14:24:03.248Z,55.96
2022-10-25T14:26:57.097Z,55.74
2022-10-25T14:29:44.729Z,55.83
2022-10-25T14:32:32.091Z,56.14
2022-10-25T14:35:20.032Z,56.04
2022-10-25T14:38:18.089Z,56.24
2022-10-25T14:41:13.516Z,56.44
2022-10-25T14:44:02.303Z,56.33
2022-10-25T14:46:49.799Z,56.41
2022-10-25T14:49:38.499Z,56.55
2022-10-25T14:52:27.393Z,56.86
2022-10-25T14:55:25.383Z,56.93
2022-10-25T14:58:14.153Z,56.70
2022-10-25T15:01:05.053Z,57.24
2022-10-25T15:03:57.229Z,56.94
2022-10-25T15:06:44.900Z,57.24
2022-10-25T15:09:49.257Z,57.28
2022-10-25T15:12:38.013Z,57.21
2022-10-25T15:15:36.199Z,57.39
2022-10-25T15:18:36.044Z,57.30
2022-10-25T15:21:23.524Z,57.65
2022-10-25T15:24:17.754Z,57.58
2022-10-25T15:27:06.803Z,57.72
2022-10-25T15:29:56.005Z,57.68
2022-10-25T15:32:43.564Z,57.79
2022-10-25T15:35:33.637Z,57.82
2022-10-25T15:38:21.662Z,58.29
2022-10-25T15:41:10.693Z,58.20
2022-10-25T15:44:00.080Z,58.33
2022-10-25T15:46:50.350Z,58.75
2022-10-25T15:49:38.116Z,58.93
2022-10-25T15:52:25.960Z,58.97
2022-10-25T15:55:21.161Z,59.49
2022-10-25T15:58:10.660Z,59.28
2022-10-25T16:00:58.348Z,59.60
2022-10-25T16:03:47.100Z,59.49
2022-10-25T16:06:34.698Z,59.93
2022-10-25T16:09:22.110Z,59.87
2022-10-25T16:12:15.066Z,60.11
2022-10-25T16:15:02.630Z,60.18
2022-10-25T16:17:50.069Z,60.17
2022-10-25T16:20:39.184Z,60.41
2022-10-25T16:23:27.521Z,60.55
2022-10-25T16:26:24.944Z,60.66
2022-10-25T16:29:17.643Z,60.64
2022-10-25T16:32:05.630Z,60.87
2022-10-25T16:34:53.283Z,60.88
2022-10-25T16:37:42.275Z,61.00
2022-10-25T16:40:29.950Z,60.79
2022-10-25T16:43:17.774Z,61.10
2022-10-25T16:46:05.286Z,61.05
2022-10-25T16:48:54.192Z,61.15
2022-10-25T16:51:44.996Z,61.11
2022-10-25T16:54:33.914Z,61.44
2022-10-25T16:57:21.748Z,61.70
2022-10-25T17:00:11.173Z,61.48
2022-10-25T17:02:58.766Z,61.50
2022-10-25T17:05:48.684Z,61.70
2022-10-25T17:08:36.000Z,61.64
2022-10-25T17:11:24.948Z,61.88
2022-10-25T17:14:14.374Z,61.80
2022-10-25T17:17:03.270Z,61.65
2022-10-25T17:19:50.988Z,62.03
2022-10-25T17:22:38.615Z,61.75
2022-10-25T17:25:26.104Z,61.89
2022-10-25T17:28:17.596Z,61.67
2022-10-25T17:31:12.402Z,61.78
2022-10-25T17:34:03.730Z,61.73
2022-10-25T17:39:47.548Z,61.90
2022-10-25T17:42:45.784Z,62.03
2022-10-25T17:45:40.712Z,61.90
2022-10-25T17:48:33.357Z,61.95
2022-10-25T17:51:25.290Z,61.76
2022-10-25T17:54:22.296Z,61.81
2022-10-25T17:57:14.034Z,61.74
2022-10-25T18:00:07.793Z,61.63
2022-10-25T18:03:04.251Z,61.69
2022-10-25T18:05:51.572Z,61.67
2022-10-25T18:08:39.159Z,61.78
2022-10-25T18:11:28.791Z,61.68
2022-10-25T18:14:16.559Z,61.48
2022-10-25T18:17:04.487Z,61.68
2022-10-25T18:19:53.465Z,61.50
2022-10-25T18:22:41.174Z,61.62
2022-10-25T18:25:28.567Z,61.77
2022-10-25T18:28:16.073Z,61.74
2022-10-25T18:31:07.932Z,61.84
2022-10-25T18:33:56.886Z,61.69
2022-10-25T18:36:46.031Z,61.77
2022-10-25T18:39:36.073Z,61.76
2022-10-25T18:42:24.477Z,61.86
2022-10-25T18:45:13.324Z,61.88
2022-10-25T18:48:00.736Z,62.02
2022-10-25T18:50:48.131Z,62.21
2022-10-25T18:53:39.456Z,62.31
2022-10-25T18:56:27.834Z,62.29
2022-10-25T18:59:17.856Z,62.35
2022-10-25T19:02:05.464Z,62.15
2022-10-25T19:04:53.430Z,62.11
2022-10-25T19:07:40.886Z,62.56
2022-10-25T19:10:29.881Z,62.46
2022-10-25T19:13:19.597Z,62.96
2022-10-25T19:16:07.869Z,62.91
2022-10-25T19:19:02.086Z,62.93
2022-10-25T19:21:49.850Z,62.89
2022-10-25T19:24:38.475Z,63.07
2022-10-25T19:27:29.116Z,63.25
2022-10-25T19:30:16.670Z,63.11
2022-10-25T19:33:04.184Z,63.42
2022-10-25T19:35:52.031Z,63.46
2022-10-25T19:38:40.449Z,63.63
2022-10-25T19:41:28.073Z,63.53
2022-10-25T19:44:17.977Z,63.59
2022-10-25T19:47:05.984Z,63.78
2022-10-25T19:49:53.415Z,63.93
2022-10-25T19:52:41.096Z,64.07
2022-10-25T19:55:28.770Z,64.28
2022-10-25T19:58:16.092Z,63.98
2022-10-25T20:01:11.498Z,64.00
2022-10-25T20:04:01.491Z,64.29
2022-10-25T20:06:49.024Z,64.37
2022-10-25T20:09:36.401Z,64.21
2022-10-25T20:12:23.927Z,64.21
2022-10-25T20:15:16.517Z,64.58
2022-10-25T20:18:06.246Z,64.52
2022-10-25T20:21:03.014Z,64.91
2022-10-25T20:23:57.183Z,64.42
2022-10-25T20:26:50.019Z,64.46
2022-10-25T20:29:37.423Z,64.28
2022-10-25T20:32:24.838Z,64.41
2022-10-25T20:35:13.816Z,64.46
2022-10-25T20:38:01.286Z,64.54
2022-10-25T20:40:48.572Z,64.57
2022-10-25T20:43:36.652Z,64.43
2022-10-25T20:46:26.199Z,64.57
2022-10-25T20:49:13.521Z,64.68
2022-10-25T20:52:02.328Z,64.60
2022-10-25T20:54:50.184Z,64.52
2022-10-25T20:57:40.618Z,64.75
2022-10-25T21:00:27.930Z,64.73
2022-10-25T21:03:16.599Z,64.75
2022-10-25T21:06:06.792Z,64.81
2022-10-25T21:08:55.570Z,64.75
2022-10-25T21:11:43.295Z,64.64
2022-10-25T21:14:30.705Z,64.73
2022-10-25T21:17:18.258Z,65.04
2022-10-25T21:20:06.752Z,64.84
2022-10-25T21:22:54.192Z,65.00
2022-10-25T21:25:43.045Z,64.83
2022-10-25T21:28:35.998Z,64.91
2022-10-25T21:31:23.400Z,65.07
2022-10-25T21:34:11.071Z,65.12
2022-10-25T21:36:59.012Z,65.12
2022-10-25T21:39:48.019Z,65.14
2022-10-25T21:42:37.319Z,65.24
2022-10-25T21:45:24.885Z,65.15
2022-10-25T21:48:12.310Z,65.40
2022-10-25T21:50:59.869Z,65.28
2022-10-25T21:53:47.781Z,65.20
2022-10-25T21:56:35.153Z,65.30
2022-10-25T21:59:26.203Z,65.20
2022-10-25T22:02:16.885Z,65.21
2022-10-25T22:05:04.966Z,65.34
2022-10-25T22:07:54.539Z,65.46
2022-10-25T22:10:41.962Z,65.35
2022-10-25T22:13:29.652Z,65.41
2022-10-25T22:16:20.783Z,65.53
2022-10-25T22:19:14.732Z,65.53
2022-10-25T22:22:02.146Z,65.39
2022-10-25T22:24:49.521Z,65.47
2022-10-25T22:27:39.459Z,65.50
2022-10-25T22:30:27.121Z,65.53
2022-10-25T22:33:16.008Z,65.66
2022-10-25T22:38:57.705Z,65.56
2022-10-25T22:41:46.247Z,65.68
2022-10-25T22:44:35.979Z,65.73
2022-10-25T22:47:23.292Z,65.81
2022-10-25T22:50:12.506Z,65.75
2022-10-25T22:52:59.971Z,65.51
2022-10-25T22:55:59.576Z,65.60
2022-10-25T22:58:51.049Z,65.81
2022-10-25T23:01:39.945Z,65.50
2022-10-25T23:04:27.530Z,65.62
2022-10-25T23:07:17.488Z,65.75
2022-10-25T23:10:05.691Z,65.60
2022-10-25T23:12:52.973Z,65.54
2022-10-25T23:15:40.632Z,65.42
2022-10-25T23:18:28.275Z,65.52
2022-10-25T23:21:18.979Z,65.54
2022-10-25T23:24:08.369Z,65.52
2022-10-25T23:26:55.711Z,65.60
2022-10-25T23:29:43.143Z,65.60
2022-10-25T23:32:30.613Z,65.61
2022-10-25T23:35:18.017Z,65.58
2022-10-25T23:38:05.454Z,65.47
2022-10-25T23:40:54.148Z,65.61
2022-10-25T23:43:42.366Z,65.59
2022-10-25T23:46:29.800Z,65.60
2022-10-25T23:49:17.595Z,65.54
2022-10-25T23:52:05.101Z,65.63
2022-10-25T23:54:52.554Z,65.48
2022-10-25T23:57:41.281Z,65.61
